Tangier, Virginia
Current Conditions -  °F | °C
As of 10:57 PM on Sunday 23 Nov 2014 (Local Time) from KTGI Reporting Station
Overcast Overcast  
Wind Chill: 57°   Ceiling: 3700
Heat Index: 57°   Visibility: 10mi
Dew Point: 55°   Wind: 13mph
Humidity: 94%   Direction: 140°SE
Pressure: 29.89"   Gusts: 20mph
Location:  37.83°N, 75.99°W
Report Text: KTGI 240357Z AUTO 14011G17KT 10SM BKN037 OVC046 14/13 A2989 RMK AO1
Loading
Personal Weather Stations






























Interactive Weather Map New forecast layout! Learn more

10-Day Weather Forecast

Advertisements
Track Severe Weather on mobile